Time;durP1;ratioP1;P1;durP2;ratioP2;P2;SDS_P1;SDS_P2;PMS_P1;PMS_P2;Temp;Humidity;BMP_temperature;BMP_pressure;BME280_temperature;BME280_humidity;BME280_pressure;Samples;Min_cycle;Max_cycle;Signal;HPM_P1;HPM_P2
2022/09/27 00:07:34;;;;;;;8.93;3.60;;;;;;;16.33;100.00;99728.28;31592508;28;20048;-76
2022/09/27 00:22:36;;;;;;;8.40;3.70;;;;;;;16.37;100.00;99707.72;31581398;28;20067;-76
2022/09/27 00:37:38;;;;;;;7.40;3.95;;;;;;;16.38;100.00;99692.03;31574865;28;20067;-76
2022/09/27 00:52:51;;;;;;;5.97;3.72;;;;;;;16.43;100.00;99672.22;31592240;28;20059;-76
2022/09/27 01:07:59;;;;;;;8.65;4.28;;;;;;;16.47;100.00;99659.09;31573567;28;20536;-76
2022/09/27 01:23:24;;;;;;;8.27;4.05;;;;;;;16.48;100.00;99662.59;31604563;28;20044;-77
2022/09/27 01:38:55;;;;;;;16.50;4.43;;;;;;;16.44;100.00;99635.38;31571553;28;20113;-77
2022/09/27 01:54:04;;;;;;;7.28;3.33;;;;;;;16.38;100.00;99653.69;31596704;28;20048;-75
2022/09/27 02:09:13;;;;;;;8.85;5.20;;;;;;;16.37;100.00;99636.50;31612589;28;20048;-75
2022/09/27 02:24:23;;;;;;;11.45;4.38;;;;;;;16.26;100.00;99600.69;31591413;28;20382;-77
2022/09/27 02:39:26;;;;;;;10.80;5.03;;;;;;;16.21;100.00;99611.53;31588995;28;20054;-76
2022/09/27 02:54:51;;;;;;;9.43;4.85;;;;;;;16.15;100.00;99602.44;31605878;28;20052;-77
2022/09/27 03:09:53;;;;;;;11.13;4.83;;;;;;;16.08;100.00;99570.69;31602730;28;20039;-76
2022/09/27 03:24:56;;;;;;;10.03;5.23;;;;;;;16.11;100.00;99577.22;31595935;28;20048;-76
2022/09/27 03:39:58;;;;;;;8.03;5.00;;;;;;;16.07;100.00;99558.22;31584064;28;20291;-75
2022/09/27 03:55:00;;;;;;;8.88;6.07;;;;;;;16.09;100.00;99522.16;31582867;28;20169;-77
2022/09/27 04:10:04;;;;;;;11.43;6.82;;;;;;;16.19;100.00;99531.81;31582887;28;20508;-77
2022/09/27 04:25:08;;;;;;;11.20;6.13;;;;;;;16.16;100.00;99521.81;31580315;28;20489;-76
2022/09/27 04:40:10;;;;;;;13.57;6.60;;;;;;;16.29;100.00;99525.06;31585177;28;20040;-75
2022/09/27 04:55:12;;;;;;;11.98;6.70;;;;;;;16.32;100.00;99502.94;31600318;28;20048;-76
2022/09/27 05:10:14;;;;;;;11.75;5.93;;;;;;;16.33;100.00;99498.97;31597043;28;20074;-76
2022/09/27 05:25:16;;;;;;;13.02;7.00;;;;;;;16.36;100.00;99498.03;31601312;28;20050;-76
2022/09/27 05:40:18;;;;;;;10.27;6.47;;;;;;;16.46;100.00;99487.75;31626517;28;20051;-76
2022/09/27 05:55:40;;;;;;;9.23;5.85;;;;;;;16.55;100.00;99479.41;31610425;28;20138;-76
2022/09/27 06:10:42;;;;;;;10.60;5.80;;;;;;;16.74;100.00;99465.53;31601906;28;20048;-77
2022/09/27 06:25:45;;;;;;;7.57;5.38;;;;;;;16.87;100.00;99468.72;31622546;28;20060;-78
2022/09/27 06:40:48;;;;;;;10.87;5.90;;;;;;;16.89;100.00;99445.06;31607948;28;20048;-78
2022/09/27 06:55:51;;;;;;;11.80;5.53;;;;;;;16.80;100.00;99430.72;31622698;28;20409;-76
2022/09/27 07:10:54;;;;;;;10.70;5.13;;;;;;;16.86;100.00;99435.06;31602316;28;20510;-78
2022/09/27 07:26:03;;;;;;;10.53;5.93;;;;;;;17.00;100.00;99439.00;31584693;28;20059;-77
2022/09/27 07:41:09;;;;;;;10.13;5.53;;;;;;;17.67;100.00;99443.34;31572722;28;20051;-76
2022/09/27 07:56:11;;;;;;;9.30;5.38;;;;;;;17.70;100.00;99439.66;31558298;28;20489;-84
2022/09/27 08:11:15;;;;;;;8.10;5.15;;;;;;;17.72;100.00;99376.00;31577957;28;20045;-79
2022/09/27 08:26:17;;;;;;;12.87;6.10;;;;;;;17.69;100.00;99371.50;31562550;28;20049;-84
2022/09/27 08:41:26;;;;;;;10.07;4.70;;;;;;;17.71;100.00;99358.06;31571184;28;20127;-80
2022/09/27 08:56:28;;;;;;;5.50;3.95;;;;;;;17.69;100.00;99366.03;31577239;28;20048;-85
2022/09/27 09:27:25;;;;;;;4.15;3.38;;;;;;;17.51;100.00;99325.13;31563314;28;20516;-84
2022/09/27 09:42:34;;;;;;;5.00;3.20;;;;;;;17.57;100.00;99356.13;31580461;28;20114;-82
2022/09/27 09:57:48;;;;;;;4.70;3.05;;;;;;;17.58;100.00;99339.19;31549827;28;20105;-77
2022/09/27 10:12:51;;;;;;;6.30;4.13;;;;;;;17.62;100.00;99323.25;31559315;28;20082;-77
2022/09/27 10:27:54;;;;;;;4.80;2.88;;;;;;;17.70;100.00;99316.13;31599927;28;20083;-78
2022/09/27 10:43:23;;;;;;;4.97;3.50;;;;;;;17.88;100.00;99297.81;31590927;28;20048;-76
2022/09/27 10:58:33;;;;;;;8.15;3.90;;;;;;;17.97;100.00;99259.16;31602196;28;20538;-78
2022/09/27 11:13:35;;;;;;;6.53;4.20;;;;;;;18.07;100.00;99246.75;31589983;28;20044;-80
2022/09/27 11:28:52;;;;;;;7.13;4.65;;;;;;;18.09;100.00;99240.78;31598970;28;20432;-75
2022/09/27 11:44:38;;;;;;;6.38;4.60;;;;;;;18.13;100.00;99238.56;31604670;28;20048;-72
2022/09/27 12:00:09;;;;;;;7.75;3.75;;;;;;;18.24;100.00;99216.63;31584514;28;20056;-83
2022/09/27 12:15:25;;;;;;;8.20;4.97;;;;;;;18.09;100.00;99188.59;31590790;28;20107;-79
2022/09/27 12:30:30;;;;;;;7.13;5.07;;;;;;;18.08;100.00;99170.63;31557882;28;20131;-77
2022/09/27 12:46:06;;;;;;;7.60;4.68;;;;;;;18.32;100.00;99179.22;31584077;28;20082;-87
2022/09/27 13:01:19;;;;;;;7.65;5.45;;;;;;;18.31;100.00;99162.00;31572188;28;20052;-75
2022/09/27 13:16:22;;;;;;;7.88;4.70;;;;;;;18.48;100.00;99159.28;31559458;28;20525;-77
2022/09/27 13:32:01;;;;;;;9.35;5.50;;;;;;;18.56;100.00;99154.84;31571342;28;20048;-77
2022/09/27 13:47:31;;;;;;;10.10;4.40;;;;;;;18.57;100.00;99128.09;31596209;28;20421;-76
2022/09/27 14:03:21;;;;;;;7.15;4.32;;;;;;;18.59;100.00;99125.59;31602394;28;20051;-76
2022/09/27 14:18:23;;;;;;;6.38;4.10;;;;;;;18.50;95.14;99104.59;31581261;28;20106;-76
2022/09/27 14:33:28;;;;;;;6.22;3.80;;;;;;;18.31;91.35;99106.28;31578490;28;20048;-77
2022/09/27 14:48:33;;;;;;;8.23;4.40;;;;;;;17.93;91.90;99108.41;31591080;28;20040;-76
2022/09/27 15:03:38;;;;;;;5.38;3.83;;;;;;;17.55;96.23;99070.47;31580080;28;20052;-81
2022/09/27 15:18:47;;;;;;;7.25;4.43;;;;;;;17.27;99.86;99065.56;31588763;28;20493;-85
2022/09/27 15:53:32;;;;;;;8.05;4.93;;;;;;;16.96;100.00;99054.66;31947202;27;20517;-80
2022/09/27 16:08:34;;;;;;;7.57;5.78;;;;;;;16.90;100.00;99040.16;31949169;27;20573;-79
2022/09/27 16:23:35;;;;;;;11.52;5.20;;;;;;;16.85;100.00;99046.31;31942779;27;20104;-84
2022/09/27 16:38:37;;;;;;;9.00;5.47;;;;;;;16.83;100.00;99052.28;31931381;27;20051;-73
2022/09/27 16:53:39;;;;;;;8.52;6.63;;;;;;;16.79;100.00;99040.03;31853015;27;20476;-72
2022/09/27 17:08:42;;;;;;;12.77;7.38;;;;;;;16.38;100.00;99040.16;31861416;27;20119;-72
2022/09/27 17:23:44;;;;;;;12.32;8.98;;;;;;;16.14;100.00;99031.44;31832292;27;20144;-73
2022/09/27 17:38:47;;;;;;;9.85;6.93;;;;;;;16.09;100.00;99032.13;31840602;27;20071;-73
2022/09/27 17:53:50;;;;;;;10.03;8.30;;;;;;;16.16;100.00;99028.97;31827390;27;20071;-73
2022/09/27 18:08:53;;;;;;;12.40;8.20;;;;;;;16.18;100.00;99027.25;31822900;27;21642;-72
2022/09/27 18:23:57;;;;;;;15.63;8.70;;;;;;;16.10;100.00;99030.88;31826370;27;20519;-72
2022/09/27 18:39:01;;;;;;;10.65;8.35;;;;;;;16.08;100.00;99020.41;31822751;27;20083;-73
2022/09/27 18:54:10;;;;;;;;;;;;;;;16.03;100.00;99005.47;31838418;27;20108;-75
2022/09/27 19:09:12;;;;;;;15.43;8.77;;;;;;;15.99;100.00;99004.91;31829720;27;19920;-74
2022/09/27 19:24:14;;;;;;;12.27;8.77;;;;;;;16.00;100.00;98989.25;31820226;27;20058;-74
2022/09/27 19:39:16;;;;;;;16.77;11.77;;;;;;;16.03;100.00;98972.63;31820519;27;20054;-73
2022/09/27 19:54:18;;;;;;;24.02;14.02;;;;;;;16.07;100.00;98960.69;31821227;27;20052;-72
2022/09/27 20:09:20;;;;;;;27.37;16.77;;;;;;;16.03;100.00;98958.94;31824056;27;20423;-73
2022/09/27 20:24:22;;;;;;;26.20;16.37;;;;;;;15.93;100.00;98952.09;31837103;27;20174;-74
2022/09/27 20:39:24;;;;;;;32.20;17.53;;;;;;;15.90;100.00;98953.06;31844662;27;20150;-73
2022/09/27 20:54:26;;;;;;;26.13;16.90;;;;;;;15.94;100.00;98950.13;31841600;27;20052;-72
2022/09/27 21:09:28;;;;;;;28.00;18.67;;;;;;;16.06;100.00;98942.78;31840075;27;20108;-73
2022/09/27 21:24:30;;;;;;;33.33;20.10;;;;;;;16.20;100.00;98930.94;31854273;27;20054;-73
2022/09/27 21:39:31;;;;;;;30.20;19.13;;;;;;;16.31;100.00;98920.06;31851544;27;20507;-73
2022/09/27 21:54:33;;;;;;;30.30;19.33;;;;;;;16.46;100.00;98915.25;31855167;27;20055;-72
2022/09/27 22:09:35;;;;;;;38.15;22.98;;;;;;;16.50;100.00;98904.06;31851115;27;20062;-73
2022/09/27 22:24:37;;;;;;;47.05;23.45;;;;;;;16.40;100.00;98898.00;31866723;27;20047;-71
2022/09/27 22:39:39;;;;;;;49.38;24.30;;;;;;;16.31;100.00;98893.44;31853101;27;20064;-72
2022/09/27 22:54:41;;;;;;;43.17;22.90;;;;;;;16.30;100.00;98913.09;31857908;27;20048;-73
2022/09/27 23:09:43;;;;;;;45.42;25.27;;;;;;;16.34;100.00;98891.72;31853520;27;20047;-73
2022/09/27 23:24:44;;;;;;;40.50;23.42;;;;;;;16.35;100.00;98888.50;31824909;27;20078;-73
2022/09/27 23:39:46;;;;;;;45.60;24.23;;;;;;;16.43;100.00;98883.34;31830182;27;20106;-73
2022/09/27 23:54:49;;;;;;;56.22;25.33;;;;;;;16.54;100.00;98877.91;31841458;27;20047;-72
